sensor_id;sensor_type;location;lat;lon;timestamp;temperature;humidity
23869;DHT22;12115;47.128;15.422;2023-04-15T00:02:17;7.20;99.90
23869;DHT22;12115;47.128;15.422;2023-04-15T00:04:48;7.20;99.90
23869;DHT22;12115;47.128;15.422;2023-04-15T00:07:15;7.20;99.90
23869;DHT22;12115;47.128;15.422;2023-04-15T00:09:42;7.20;99.90
23869;DHT22;12115;47.128;15.422;2023-04-15T00:12:11;7.20;99.90
23869;DHT22;12115;47.128;15.422;2023-04-15T00:14:38;7.10;99.90
23869;DHT22;12115;47.128;15.422;2023-04-15T00:17:05;7.10;99.90
23869;DHT22;12115;47.128;15.422;2023-04-15T00:19:33;7.10;99.90
23869;DHT22;12115;47.128;15.422;2023-04-15T00:22:00;7.20;99.90
23869;DHT22;12115;47.128;15.422;2023-04-15T00:24:27;7.10;99.90
23869;DHT22;12115;47.128;15.422;2023-04-15T00:26:54;7.10;99.90
23869;DHT22;12115;47.128;15.422;2023-04-15T00:29:21;7.10;99.90
23869;DHT22;12115;47.128;15.422;2023-04-15T00:31:48;7.10;99.90
23869;DHT22;12115;47.128;15.422;2023-04-15T00:34:15;7.10;99.90
23869;DHT22;12115;47.128;15.422;2023-04-15T00:36:43;7.10;99.90
23869;DHT22;12115;47.128;15.422;2023-04-15T00:39:11;7.10;99.90
23869;DHT22;12115;47.128;15.422;2023-04-15T00:41:37;7.10;99.90
23869;DHT22;12115;47.128;15.422;2023-04-15T00:44:06;7.10;99.90
23869;DHT22;12115;47.128;15.422;2023-04-15T00:46:35;7.10;99.90
23869;DHT22;12115;47.128;15.422;2023-04-15T00:49:04;7.10;99.90
23869;DHT22;12115;47.128;15.422;2023-04-15T00:51:35;7.10;99.90
23869;DHT22;12115;47.128;15.422;2023-04-15T00:54:03;7.10;99.90
23869;DHT22;12115;47.128;15.422;2023-04-15T00:56:37;7.10;99.90
23869;DHT22;12115;47.128;15.422;2023-04-15T00:59:05;7.10;99.90
23869;DHT22;12115;47.128;15.422;2023-04-15T01:01:36;7.10;99.90
23869;DHT22;12115;47.128;15.422;2023-04-15T01:04:04;7.10;99.90
23869;DHT22;12115;47.128;15.422;2023-04-15T01:06:31;7.10;99.90
23869;DHT22;12115;47.128;15.422;2023-04-15T01:08:59;7.00;99.90
23869;DHT22;12115;47.128;15.422;2023-04-15T01:11:26;7.10;99.90
23869;DHT22;12115;47.128;15.422;2023-04-15T01:13:55;7.10;99.90
23869;DHT22;12115;47.128;15.422;2023-04-15T01:16:23;7.10;99.90
23869;DHT22;12115;47.128;15.422;2023-04-15T01:18:50;7.10;99.90
23869;DHT22;12115;47.128;15.422;2023-04-15T01:21:18;7.10;99.90
23869;DHT22;12115;47.128;15.422;2023-04-15T01:23:46;7.10;99.90
23869;DHT22;12115;47.128;15.422;2023-04-15T01:26:14;7.10;99.90
23869;DHT22;12115;47.128;15.422;2023-04-15T01:28:42;7.10;99.90
23869;DHT22;12115;47.128;15.422;2023-04-15T01:31:11;7.10;99.90
23869;DHT22;12115;47.128;15.422;2023-04-15T01:33:40;7.10;99.90
23869;DHT22;12115;47.128;15.422;2023-04-15T01:36:08;7.10;99.90
23869;DHT22;12115;47.128;15.422;2023-04-15T01:38:37;7.10;99.90
23869;DHT22;12115;47.128;15.422;2023-04-15T01:41:04;7.10;99.90
23869;DHT22;12115;47.128;15.422;2023-04-15T01:43:36;7.10;99.90
23869;DHT22;12115;47.128;15.422;2023-04-15T01:46:03;7.10;99.90
23869;DHT22;12115;47.128;15.422;2023-04-15T01:48:31;7.10;99.90
23869;DHT22;12115;47.128;15.422;2023-04-15T01:50:59;7.10;99.90
23869;DHT22;12115;47.128;15.422;2023-04-15T01:53:26;7.10;99.90
23869;DHT22;12115;47.128;15.422;2023-04-15T01:55:53;7.10;99.90
23869;DHT22;12115;47.128;15.422;2023-04-15T01:58:19;7.10;99.90
23869;DHT22;12115;47.128;15.422;2023-04-15T02:00:47;7.00;99.90
23869;DHT22;12115;47.128;15.422;2023-04-15T02:03:14;7.00;99.90
23869;DHT22;12115;47.128;15.422;2023-04-15T02:05:41;7.00;99.90
23869;DHT22;12115;47.128;15.422;2023-04-15T02:08:09;6.90;99.90
23869;DHT22;12115;47.128;15.422;2023-04-15T02:10:37;6.90;99.90
23869;DHT22;12115;47.128;15.422;2023-04-15T02:13:04;6.90;99.90
23869;DHT22;12115;47.128;15.422;2023-04-15T02:15:31;6.90;99.90
23869;DHT22;12115;47.128;15.422;2023-04-15T02:17:59;6.90;99.90
23869;DHT22;12115;47.128;15.422;2023-04-15T02:20:27;6.90;99.90
23869;DHT22;12115;47.128;15.422;2023-04-15T02:22:57;6.90;99.90
23869;DHT22;12115;47.128;15.422;2023-04-15T02:25:24;6.90;99.90
23869;DHT22;12115;47.128;15.422;2023-04-15T02:27:51;6.90;99.90
23869;DHT22;12115;47.128;15.422;2023-04-15T02:30:18;7.00;99.90
23869;DHT22;12115;47.128;15.422;2023-04-15T02:32:46;6.90;99.90
23869;DHT22;12115;47.128;15.422;2023-04-15T02:35:14;6.90;99.90
23869;DHT22;12115;47.128;15.422;2023-04-15T02:37:41;6.80;99.90
23869;DHT22;12115;47.128;15.422;2023-04-15T02:40:10;6.90;99.90
23869;DHT22;12115;47.128;15.422;2023-04-15T02:42:39;6.90;99.90
23869;DHT22;12115;47.128;15.422;2023-04-15T02:45:09;6.80;99.90
23869;DHT22;12115;47.128;15.422;2023-04-15T02:47:38;6.80;99.90
23869;DHT22;12115;47.128;15.422;2023-04-15T02:50:08;6.80;99.90
23869;DHT22;12115;47.128;15.422;2023-04-15T02:52:35;6.80;99.90
23869;DHT22;12115;47.128;15.422;2023-04-15T02:55:02;6.80;99.90
23869;DHT22;12115;47.128;15.422;2023-04-15T02:57:30;6.80;99.90
23869;DHT22;12115;47.128;15.422;2023-04-15T03:00:04;6.90;99.90
23869;DHT22;12115;47.128;15.422;2023-04-15T03:02:36;6.80;99.90
23869;DHT22;12115;47.128;15.422;2023-04-15T03:05:04;6.90;99.90
23869;DHT22;12115;47.128;15.422;2023-04-15T03:07:32;6.80;99.90
23869;DHT22;12115;47.128;15.422;2023-04-15T03:10:00;6.80;99.90
23869;DHT22;12115;47.128;15.422;2023-04-15T03:12:28;6.80;99.90
23869;DHT22;12115;47.128;15.422;2023-04-15T03:14:56;6.80;99.90
23869;DHT22;12115;47.128;15.422;2023-04-15T03:17:31;6.80;99.90
23869;DHT22;12115;47.128;15.422;2023-04-15T03:20:00;6.80;99.90
23869;DHT22;12115;47.128;15.422;2023-04-15T03:22:28;6.80;99.90
23869;DHT22;12115;47.128;15.422;2023-04-15T03:24:55;6.80;99.90
23869;DHT22;12115;47.128;15.422;2023-04-15T03:27:23;6.80;99.90
23869;DHT22;12115;47.128;15.422;2023-04-15T03:29:51;6.80;99.90
23869;DHT22;12115;47.128;15.422;2023-04-15T03:32:20;6.70;99.90
23869;DHT22;12115;47.128;15.422;2023-04-15T03:34:47;6.70;99.90
23869;DHT22;12115;47.128;15.422;2023-04-15T03:37:14;6.70;99.90
23869;DHT22;12115;47.128;15.422;2023-04-15T03:39:41;6.70;99.90
23869;DHT22;12115;47.128;15.422;2023-04-15T03:42:08;6.70;99.90
23869;DHT22;12115;47.128;15.422;2023-04-15T03:44:35;6.70;99.90
23869;DHT22;12115;47.128;15.422;2023-04-15T03:47:02;6.70;99.90
23869;DHT22;12115;47.128;15.422;2023-04-15T03:49:29;6.70;99.90
23869;DHT22;12115;47.128;15.422;2023-04-15T03:51:56;6.70;99.90
23869;DHT22;12115;47.128;15.422;2023-04-15T03:54:23;6.70;99.90
23869;DHT22;12115;47.128;15.422;2023-04-15T03:56:50;6.70;99.90
23869;DHT22;12115;47.128;15.422;2023-04-15T03:59:17;6.70;99.90
23869;DHT22;12115;47.128;15.422;2023-04-15T04:01:44;6.70;99.90
23869;DHT22;12115;47.128;15.422;2023-04-15T04:04:11;6.70;99.90
23869;DHT22;12115;47.128;15.422;2023-04-15T04:06:38;6.70;99.90
23869;DHT22;12115;47.128;15.422;2023-04-15T04:09:05;6.70;99.90
23869;DHT22;12115;47.128;15.422;2023-04-15T04:11:32;6.70;99.90
23869;DHT22;12115;47.128;15.422;2023-04-15T04:13:59;6.70;99.90
23869;DHT22;12115;47.128;15.422;2023-04-15T04:16:26;6.70;99.90
23869;DHT22;12115;47.128;15.422;2023-04-15T04:18:53;6.70;99.90
23869;DHT22;12115;47.128;15.422;2023-04-15T04:21:20;6.70;99.90
23869;DHT22;12115;47.128;15.422;2023-04-15T04:23:47;6.70;99.90
23869;DHT22;12115;47.128;15.422;2023-04-15T04:26:14;6.70;99.90
23869;DHT22;12115;47.128;15.422;2023-04-15T04:28:41;6.70;99.90
23869;DHT22;12115;47.128;15.422;2023-04-15T04:31:08;6.70;99.90
23869;DHT22;12115;47.128;15.422;2023-04-15T04:33:35;6.70;99.90
23869;DHT22;12115;47.128;15.422;2023-04-15T04:36:02;6.80;99.90
23869;DHT22;12115;47.128;15.422;2023-04-15T04:38:29;6.70;99.90
23869;DHT22;12115;47.128;15.422;2023-04-15T04:40:56;6.70;99.90
23869;DHT22;12115;47.128;15.422;2023-04-15T04:43:23;6.70;99.90
23869;DHT22;12115;47.128;15.422;2023-04-15T04:45:50;6.70;99.90
23869;DHT22;12115;47.128;15.422;2023-04-15T04:48:17;6.70;99.90
23869;DHT22;12115;47.128;15.422;2023-04-15T04:50:45;6.70;99.90
23869;DHT22;12115;47.128;15.422;2023-04-15T04:53:12;6.70;99.90
23869;DHT22;12115;47.128;15.422;2023-04-15T04:55:40;6.70;99.90
23869;DHT22;12115;47.128;15.422;2023-04-15T04:58:07;6.70;99.90
23869;DHT22;12115;47.128;15.422;2023-04-15T05:00:34;6.80;99.90
23869;DHT22;12115;47.128;15.422;2023-04-15T05:03:01;6.80;99.90
23869;DHT22;12115;47.128;15.422;2023-04-15T05:05:28;6.70;99.90
23869;DHT22;12115;47.128;15.422;2023-04-15T05:07:55;6.80;99.90
23869;DHT22;12115;47.128;15.422;2023-04-15T05:10:22;6.70;99.90
23869;DHT22;12115;47.128;15.422;2023-04-15T05:12:49;6.80;99.90
23869;DHT22;12115;47.128;15.422;2023-04-15T05:15:17;6.80;99.90
23869;DHT22;12115;47.128;15.422;2023-04-15T05:17:44;6.70;99.90
23869;DHT22;12115;47.128;15.422;2023-04-15T05:20:12;6.80;99.90
23869;DHT22;12115;47.128;15.422;2023-04-15T05:22:39;6.80;99.90
23869;DHT22;12115;47.128;15.422;2023-04-15T05:25:07;6.80;99.90
23869;DHT22;12115;47.128;15.422;2023-04-15T05:27:34;6.80;99.90
23869;DHT22;12115;47.128;15.422;2023-04-15T05:30:01;6.80;99.90
23869;DHT22;12115;47.128;15.422;2023-04-15T05:32:28;6.80;99.90
23869;DHT22;12115;47.128;15.422;2023-04-15T05:34:55;6.80;99.90
23869;DHT22;12115;47.128;15.422;2023-04-15T05:37:22;6.80;99.90
23869;DHT22;12115;47.128;15.422;2023-04-15T05:39:49;6.80;99.90
23869;DHT22;12115;47.128;15.422;2023-04-15T05:42:16;6.80;99.90
23869;DHT22;12115;47.128;15.422;2023-04-15T05:44:43;6.90;99.90
23869;DHT22;12115;47.128;15.422;2023-04-15T05:47:10;6.80;99.90
23869;DHT22;12115;47.128;15.422;2023-04-15T05:49:37;6.90;99.90
23869;DHT22;12115;47.128;15.422;2023-04-15T05:52:04;6.90;99.90
23869;DHT22;12115;47.128;15.422;2023-04-15T05:54:31;6.90;99.90
23869;DHT22;12115;47.128;15.422;2023-04-15T05:56:58;6.90;99.90
23869;DHT22;12115;47.128;15.422;2023-04-15T05:59:25;6.90;99.90
23869;DHT22;12115;47.128;15.422;2023-04-15T06:01:54;6.90;99.90
23869;DHT22;12115;47.128;15.422;2023-04-15T06:04:21;6.90;99.90
23869;DHT22;12115;47.128;15.422;2023-04-15T06:06:48;7.00;99.90
23869;DHT22;12115;47.128;15.422;2023-04-15T06:09:15;6.90;99.90
23869;DHT22;12115;47.128;15.422;2023-04-15T06:11:42;7.00;99.90
23869;DHT22;12115;47.128;15.422;2023-04-15T06:14:09;6.90;99.90
23869;DHT22;12115;47.128;15.422;2023-04-15T06:16:36;7.00;99.90
23869;DHT22;12115;47.128;15.422;2023-04-15T06:19:03;7.00;99.90
23869;DHT22;12115;47.128;15.422;2023-04-15T06:21:30;7.00;99.90
23869;DHT22;12115;47.128;15.422;2023-04-15T06:23:58;7.00;99.90
23869;DHT22;12115;47.128;15.422;2023-04-15T06:26:27;7.00;99.90
23869;DHT22;12115;47.128;15.422;2023-04-15T06:28:54;7.10;99.90
23869;DHT22;12115;47.128;15.422;2023-04-15T06:31:21;7.10;99.90
23869;DHT22;12115;47.128;15.422;2023-04-15T06:33:48;7.10;99.90
23869;DHT22;12115;47.128;15.422;2023-04-15T06:36:15;7.20;99.90
23869;DHT22;12115;47.128;15.422;2023-04-15T06:38:42;7.20;99.90
23869;DHT22;12115;47.128;15.422;2023-04-15T06:41:09;7.10;99.90
23869;DHT22;12115;47.128;15.422;2023-04-15T06:43:37;7.10;99.90
23869;DHT22;12115;47.128;15.422;2023-04-15T06:46:04;7.10;99.90
23869;DHT22;12115;47.128;15.422;2023-04-15T06:48:31;7.20;99.90
23869;DHT22;12115;47.128;15.422;2023-04-15T06:50:58;7.20;99.90
23869;DHT22;12115;47.128;15.422;2023-04-15T06:53:25;7.30;99.90
23869;DHT22;12115;47.128;15.422;2023-04-15T06:55:53;7.30;99.90
23869;DHT22;12115;47.128;15.422;2023-04-15T06:58:21;7.30;99.90
23869;DHT22;12115;47.128;15.422;2023-04-15T07:00:48;7.30;99.90
23869;DHT22;12115;47.128;15.422;2023-04-15T07:03:15;7.40;99.90
23869;DHT22;12115;47.128;15.422;2023-04-15T07:05:42;7.40;99.90
23869;DHT22;12115;47.128;15.422;2023-04-15T07:08:09;7.40;99.90
23869;DHT22;12115;47.128;15.422;2023-04-15T07:10:36;7.40;99.90
23869;DHT22;12115;47.128;15.422;2023-04-15T07:13:03;7.40;99.90
23869;DHT22;12115;47.128;15.422;2023-04-15T07:15:31;7.40;99.90
23869;DHT22;12115;47.128;15.422;2023-04-15T07:17:58;7.40;99.90
23869;DHT22;12115;47.128;15.422;2023-04-15T07:20:25;7.40;99.90
23869;DHT22;12115;47.128;15.422;2023-04-15T07:22:53;7.40;99.90
23869;DHT22;12115;47.128;15.422;2023-04-15T07:25:20;7.40;99.90
23869;DHT22;12115;47.128;15.422;2023-04-15T07:27:46;7.40;99.90
23869;DHT22;12115;47.128;15.422;2023-04-15T07:30:14;7.40;99.90
23869;DHT22;12115;47.128;15.422;2023-04-15T07:32:41;7.40;99.90
23869;DHT22;12115;47.128;15.422;2023-04-15T07:35:09;7.50;99.90
23869;DHT22;12115;47.128;15.422;2023-04-15T07:37:36;7.50;99.90
23869;DHT22;12115;47.128;15.422;2023-04-15T07:40:03;7.50;99.90
23869;DHT22;12115;47.128;15.422;2023-04-15T07:42:33;7.30;99.90
23869;DHT22;12115;47.128;15.422;2023-04-15T07:45:00;7.40;99.90
23869;DHT22;12115;47.128;15.422;2023-04-15T07:47:27;7.40;99.90
23869;DHT22;12115;47.128;15.422;2023-04-15T07:49:54;7.50;99.90
23869;DHT22;12115;47.128;15.422;2023-04-15T07:52:21;7.50;99.90
23869;DHT22;12115;47.128;15.422;2023-04-15T07:54:48;7.40;99.90
23869;DHT22;12115;47.128;15.422;2023-04-15T07:57:15;7.50;99.90
23869;DHT22;12115;47.128;15.422;2023-04-15T07:59:43;7.50;99.90
23869;DHT22;12115;47.128;15.422;2023-04-15T08:02:10;7.60;99.90
23869;DHT22;12115;47.128;15.422;2023-04-15T08:04:38;7.60;99.90
23869;DHT22;12115;47.128;15.422;2023-04-15T08:07:05;7.60;99.90
23869;DHT22;12115;47.128;15.422;2023-04-15T08:09:32;7.70;99.90
23869;DHT22;12115;47.128;15.422;2023-04-15T08:11:59;7.70;99.90
23869;DHT22;12115;47.128;15.422;2023-04-15T08:14:26;7.70;99.90
23869;DHT22;12115;47.128;15.422;2023-04-15T08:16:53;7.80;99.90
23869;DHT22;12115;47.128;15.422;2023-04-15T08:19:20;7.80;99.90
23869;DHT22;12115;47.128;15.422;2023-04-15T08:21:47;7.90;99.90
23869;DHT22;12115;47.128;15.422;2023-04-15T08:24:14;8.00;99.90
23869;DHT22;12115;47.128;15.422;2023-04-15T08:26:41;8.00;99.90
23869;DHT22;12115;47.128;15.422;2023-04-15T08:29:08;8.10;99.90
23869;DHT22;12115;47.128;15.422;2023-04-15T08:31:35;8.10;99.90
23869;DHT22;12115;47.128;15.422;2023-04-15T08:34:02;8.10;99.90
23869;DHT22;12115;47.128;15.422;2023-04-15T08:36:29;8.20;99.90
23869;DHT22;12115;47.128;15.422;2023-04-15T08:38:58;8.30;99.90
23869;DHT22;12115;47.128;15.422;2023-04-15T08:42:15;8.30;99.90
23869;DHT22;12115;47.128;15.422;2023-04-15T08:44:23;8.30;99.90
23869;DHT22;12115;47.128;15.422;2023-04-15T08:46:51;8.40;99.90
23869;DHT22;12115;47.128;15.422;2023-04-15T08:49:20;8.40;99.90
23869;DHT22;12115;47.128;15.422;2023-04-15T08:51:48;8.30;99.90
23869;DHT22;12115;47.128;15.422;2023-04-15T08:54:15;8.40;99.90
23869;DHT22;12115;47.128;15.422;2023-04-15T08:56:43;8.40;99.90
23869;DHT22;12115;47.128;15.422;2023-04-15T08:59:11;8.50;99.90
23869;DHT22;12115;47.128;15.422;2023-04-15T09:01:39;8.50;99.90
23869;DHT22;12115;47.128;15.422;2023-04-15T09:04:06;8.50;99.90
23869;DHT22;12115;47.128;15.422;2023-04-15T09:06:34;8.60;99.90
23869;DHT22;12115;47.128;15.422;2023-04-15T09:09:01;8.60;99.90
23869;DHT22;12115;47.128;15.422;2023-04-15T09:11:29;8.60;99.90
23869;DHT22;12115;47.128;15.422;2023-04-15T09:13:57;8.60;99.90
23869;DHT22;12115;47.128;15.422;2023-04-15T09:16:24;8.70;99.90
23869;DHT22;12115;47.128;15.422;2023-04-15T09:18:51;8.70;99.90
23869;DHT22;12115;47.128;15.422;2023-04-15T09:21:18;8.80;99.90
23869;DHT22;12115;47.128;15.422;2023-04-15T09:23:59;8.80;99.90
23869;DHT22;12115;47.128;15.422;2023-04-15T09:26:35;8.80;99.90
23869;DHT22;12115;47.128;15.422;2023-04-15T09:29:09;8.80;99.90
23869;DHT22;12115;47.128;15.422;2023-04-15T09:31:39;8.90;99.90
23869;DHT22;12115;47.128;15.422;2023-04-15T09:34:08;9.00;99.90
23869;DHT22;12115;47.128;15.422;2023-04-15T09:36:52;8.90;99.90
23869;DHT22;12115;47.128;15.422;2023-04-15T09:39:19;8.90;99.90
23869;DHT22;12115;47.128;15.422;2023-04-15T09:42:06;9.00;99.90
23869;DHT22;12115;47.128;15.422;2023-04-15T09:44:33;9.10;99.90
23869;DHT22;12115;47.128;15.422;2023-04-15T09:47:00;9.30;99.90
23869;DHT22;12115;47.128;15.422;2023-04-15T09:49:28;9.30;99.90
23869;DHT22;12115;47.128;15.422;2023-04-15T09:52:01;9.30;99.90
23869;DHT22;12115;47.128;15.422;2023-04-15T09:54:36;9.30;99.90
23869;DHT22;12115;47.128;15.422;2023-04-15T09:57:07;9.30;99.90
23869;DHT22;12115;47.128;15.422;2023-04-15T09:59:36;9.30;99.90
23869;DHT22;12115;47.128;15.422;2023-04-15T10:02:04;9.30;99.90
23869;DHT22;12115;47.128;15.422;2023-04-15T10:04:34;9.40;99.90
23869;DHT22;12115;47.128;15.422;2023-04-15T10:07:03;9.50;99.90
23869;DHT22;12115;47.128;15.422;2023-04-15T10:09:31;9.50;99.90
23869;DHT22;12115;47.128;15.422;2023-04-15T10:11:59;9.50;99.90
23869;DHT22;12115;47.128;15.422;2023-04-15T10:14:27;9.50;99.90
23869;DHT22;12115;47.128;15.422;2023-04-15T10:17:01;9.50;99.90
23869;DHT22;12115;47.128;15.422;2023-04-15T10:19:32;9.50;99.90
23869;DHT22;12115;47.128;15.422;2023-04-15T10:21:59;9.60;99.90
23869;DHT22;12115;47.128;15.422;2023-04-15T10:24:26;9.50;99.90
23869;DHT22;12115;47.128;15.422;2023-04-15T10:26:54;9.40;99.90
23869;DHT22;12115;47.128;15.422;2023-04-15T10:29:24;9.40;99.90
23869;DHT22;12115;47.128;15.422;2023-04-15T10:31:55;9.60;99.90
23869;DHT22;12115;47.128;15.422;2023-04-15T10:34:23;9.60;99.90
23869;DHT22;12115;47.128;15.422;2023-04-15T10:36:54;9.70;99.90
23869;DHT22;12115;47.128;15.422;2023-04-15T10:39:41;9.80;99.90
23869;DHT22;12115;47.128;15.422;2023-04-15T10:44:43;9.80;99.90
23869;DHT22;12115;47.128;15.422;2023-04-15T10:47:15;9.70;99.90
23869;DHT22;12115;47.128;15.422;2023-04-15T10:49:47;9.70;99.90
23869;DHT22;12115;47.128;15.422;2023-04-15T10:52:22;9.80;99.90
23869;DHT22;12115;47.128;15.422;2023-04-15T10:54:49;9.70;99.90
23869;DHT22;12115;47.128;15.422;2023-04-15T10:57:34;9.60;99.90
23869;DHT22;12115;47.128;15.422;2023-04-15T11:05:15;9.80;99.90
23869;DHT22;12115;47.128;15.422;2023-04-15T11:07:50;9.80;99.90
23869;DHT22;12115;47.128;15.422;2023-04-15T11:12:51;9.70;99.90
23869;DHT22;12115;47.128;15.422;2023-04-15T11:15:36;9.80;99.90
23869;DHT22;12115;47.128;15.422;2023-04-15T11:18:12;9.80;99.90
23869;DHT22;12115;47.128;15.422;2023-04-15T11:20:42;9.70;99.90
23869;DHT22;12115;47.128;15.422;2023-04-15T11:23:10;9.70;99.90
23869;DHT22;12115;47.128;15.422;2023-04-15T11:25:42;9.70;99.90
23869;DHT22;12115;47.128;15.422;2023-04-15T11:28:11;9.70;99.90
23869;DHT22;12115;47.128;15.422;2023-04-15T11:30:38;9.90;99.90
23869;DHT22;12115;47.128;15.422;2023-04-15T11:33:08;9.90;99.90
23869;DHT22;12115;47.128;15.422;2023-04-15T11:35:35;9.90;99.90
23869;DHT22;12115;47.128;15.422;2023-04-15T11:38:10;9.80;99.90
23869;DHT22;12115;47.128;15.422;2023-04-15T11:40:38;9.80;99.90
23869;DHT22;12115;47.128;15.422;2023-04-15T11:45:48;9.70;99.90
23869;DHT22;12115;47.128;15.422;2023-04-15T11:48:16;9.80;99.90
23869;DHT22;12115;47.128;15.422;2023-04-15T11:50:43;9.90;99.90
23869;DHT22;12115;47.128;15.422;2023-04-15T11:53:12;10.00;99.90
23869;DHT22;12115;47.128;15.422;2023-04-15T11:55:50;9.90;99.90
23869;DHT22;12115;47.128;15.422;2023-04-15T11:58:19;10.00;99.90
23869;DHT22;12115;47.128;15.422;2023-04-15T12:00:54;10.00;99.90
23869;DHT22;12115;47.128;15.422;2023-04-15T12:11:51;9.80;99.90
23869;DHT22;12115;47.128;15.422;2023-04-15T12:14:30;9.70;99.90
23869;DHT22;12115;47.128;15.422;2023-04-15T12:17:04;9.80;99.90
23869;DHT22;12115;47.128;15.422;2023-04-15T12:19:40;9.80;99.90
23869;DHT22;12115;47.128;15.422;2023-04-15T12:22:11;9.80;99.90
23869;DHT22;12115;47.128;15.422;2023-04-15T12:24:40;9.80;99.90
23869;DHT22;12115;47.128;15.422;2023-04-15T12:27:10;9.90;99.90
23869;DHT22;12115;47.128;15.422;2023-04-15T12:29:38;9.90;99.90
23869;DHT22;12115;47.128;15.422;2023-04-15T12:32:08;9.90;99.90
23869;DHT22;12115;47.128;15.422;2023-04-15T12:34:38;10.00;99.90
23869;DHT22;12115;47.128;15.422;2023-04-15T12:37:07;10.00;99.90
23869;DHT22;12115;47.128;15.422;2023-04-15T12:39:37;9.90;99.90
23869;DHT22;12115;47.128;15.422;2023-04-15T12:42:05;9.90;99.90
23869;DHT22;12115;47.128;15.422;2023-04-15T12:44:33;9.90;99.90
23869;DHT22;12115;47.128;15.422;2023-04-15T12:47:00;9.90;99.90
23869;DHT22;12115;47.128;15.422;2023-04-15T12:49:29;10.00;99.90
23869;DHT22;12115;47.128;15.422;2023-04-15T12:51:57;10.00;99.90
23869;DHT22;12115;47.128;15.422;2023-04-15T12:54:26;10.00;99.90
23869;DHT22;12115;47.128;15.422;2023-04-15T12:56:54;10.00;99.90
23869;DHT22;12115;47.128;15.422;2023-04-15T12:59:21;10.00;99.90
23869;DHT22;12115;47.128;15.422;2023-04-15T13:01:50;10.00;99.90
23869;DHT22;12115;47.128;15.422;2023-04-15T13:04:19;10.00;99.90
23869;DHT22;12115;47.128;15.422;2023-04-15T13:06:46;10.10;99.90
23869;DHT22;12115;47.128;15.422;2023-04-15T13:09:14;10.10;99.90
23869;DHT22;12115;47.128;15.422;2023-04-15T13:11:41;10.10;99.90
23869;DHT22;12115;47.128;15.422;2023-04-15T13:14:09;10.10;99.90
23869;DHT22;12115;47.128;15.422;2023-04-15T13:16:39;10.10;99.90
23869;DHT22;12115;47.128;15.422;2023-04-15T13:19:07;10.10;99.90
23869;DHT22;12115;47.128;15.422;2023-04-15T13:21:34;10.10;99.90
23869;DHT22;12115;47.128;15.422;2023-04-15T13:24:02;10.10;99.90
23869;DHT22;12115;47.128;15.422;2023-04-15T13:26:31;10.10;99.90
23869;DHT22;12115;47.128;15.422;2023-04-15T13:28:59;10.10;99.90
23869;DHT22;12115;47.128;15.422;2023-04-15T13:31:27;10.10;99.90
23869;DHT22;12115;47.128;15.422;2023-04-15T13:33:55;10.00;99.90
23869;DHT22;12115;47.128;15.422;2023-04-15T13:36:22;10.00;99.90
23869;DHT22;12115;47.128;15.422;2023-04-15T13:38:49;10.00;99.90
23869;DHT22;12115;47.128;15.422;2023-04-15T13:41:17;9.90;99.90
23869;DHT22;12115;47.128;15.422;2023-04-15T13:43:44;9.80;99.90
23869;DHT22;12115;47.128;15.422;2023-04-15T13:46:12;9.80;99.90
23869;DHT22;12115;47.128;15.422;2023-04-15T13:48:39;9.80;99.90
23869;DHT22;12115;47.128;15.422;2023-04-15T13:51:06;9.80;99.90
23869;DHT22;12115;47.128;15.422;2023-04-15T13:53:33;9.80;99.90
23869;DHT22;12115;47.128;15.422;2023-04-15T13:56:09;9.90;99.90
23869;DHT22;12115;47.128;15.422;2023-04-15T13:58:36;9.90;99.90
23869;DHT22;12115;47.128;15.422;2023-04-15T14:01:04;9.90;99.90
23869;DHT22;12115;47.128;15.422;2023-04-15T14:03:36;9.90;99.90
23869;DHT22;12115;47.128;15.422;2023-04-15T14:06:04;9.80;99.90
23869;DHT22;12115;47.128;15.422;2023-04-15T14:08:32;9.80;99.90
23869;DHT22;12115;47.128;15.422;2023-04-15T14:10:59;9.80;99.90
23869;DHT22;12115;47.128;15.422;2023-04-15T14:13:26;9.80;99.90
23869;DHT22;12115;47.128;15.422;2023-04-15T14:15:53;9.70;99.90
23869;DHT22;12115;47.128;15.422;2023-04-15T14:18:21;9.70;99.90
23869;DHT22;12115;47.128;15.422;2023-04-15T14:20:48;9.70;99.90
23869;DHT22;12115;47.128;15.422;2023-04-15T14:23:15;9.70;99.90
23869;DHT22;12115;47.128;15.422;2023-04-15T14:25:42;9.70;99.90
23869;DHT22;12115;47.128;15.422;2023-04-15T14:28:11;9.80;99.90
23869;DHT22;12115;47.128;15.422;2023-04-15T14:30:38;9.70;99.90
23869;DHT22;12115;47.128;15.422;2023-04-15T14:33:06;9.70;99.90
23869;DHT22;12115;47.128;15.422;2023-04-15T14:35:33;9.80;99.90
23869;DHT22;12115;47.128;15.422;2023-04-15T14:38:00;9.90;99.90
23869;DHT22;12115;47.128;15.422;2023-04-15T14:40:27;9.90;99.90
23869;DHT22;12115;47.128;15.422;2023-04-15T14:42:55;10.00;99.90
23869;DHT22;12115;47.128;15.422;2023-04-15T14:45:22;10.00;99.90
23869;DHT22;12115;47.128;15.422;2023-04-15T14:47:49;10.00;99.90
23869;DHT22;12115;47.128;15.422;2023-04-15T14:50:16;10.00;99.90
23869;DHT22;12115;47.128;15.422;2023-04-15T14:52:43;10.00;99.90
23869;DHT22;12115;47.128;15.422;2023-04-15T14:55:11;10.00;99.90
23869;DHT22;12115;47.128;15.422;2023-04-15T14:57:40;10.00;99.90
23869;DHT22;12115;47.128;15.422;2023-04-15T15:00:09;10.00;99.90
23869;DHT22;12115;47.128;15.422;2023-04-15T15:02:42;10.00;99.90
23869;DHT22;12115;47.128;15.422;2023-04-15T15:05:09;9.90;99.90
23869;DHT22;12115;47.128;15.422;2023-04-15T15:07:38;9.90;99.90
23869;DHT22;12115;47.128;15.422;2023-04-15T15:10:07;9.90;99.90
23869;DHT22;12115;47.128;15.422;2023-04-15T15:12:34;9.90;99.90
23869;DHT22;12115;47.128;15.422;2023-04-15T15:15:02;9.90;99.90
23869;DHT22;12115;47.128;15.422;2023-04-15T15:17:45;9.90;99.90
23869;DHT22;12115;47.128;15.422;2023-04-15T15:20:12;9.90;99.90
23869;DHT22;12115;47.128;15.422;2023-04-15T15:22:39;9.90;99.90
23869;DHT22;12115;47.128;15.422;2023-04-15T15:25:06;9.90;99.90
23869;DHT22;12115;47.128;15.422;2023-04-15T15:27:34;9.90;99.90
23869;DHT22;12115;47.128;15.422;2023-04-15T15:30:04;10.00;99.90
23869;DHT22;12115;47.128;15.422;2023-04-15T15:32:32;10.00;99.90
23869;DHT22;12115;47.128;15.422;2023-04-15T15:35:00;10.10;99.90
23869;DHT22;12115;47.128;15.422;2023-04-15T15:37:29;10.10;99.90
23869;DHT22;12115;47.128;15.422;2023-04-15T15:39:56;10.10;99.90
23869;DHT22;12115;47.128;15.422;2023-04-15T15:42:24;10.10;99.90
23869;DHT22;12115;47.128;15.422;2023-04-15T15:44:51;10.20;99.90
23869;DHT22;12115;47.128;15.422;2023-04-15T15:47:20;10.20;99.90
23869;DHT22;12115;47.128;15.422;2023-04-15T15:49:47;10.20;99.90
23869;DHT22;12115;47.128;15.422;2023-04-15T15:52:14;10.20;99.90
23869;DHT22;12115;47.128;15.422;2023-04-15T15:54:42;10.30;99.90
23869;DHT22;12115;47.128;15.422;2023-04-15T15:57:09;10.30;99.90
23869;DHT22;12115;47.128;15.422;2023-04-15T15:59:36;10.30;99.90